Time;durP1;ratioP1;P1;durP2;ratioP2;P2;SDS_P1;SDS_P2;PMS_P1;PMS_P2;Temp;Humidity;BMP_temperature;BMP_pressure;BME280_temperature;BME280_humidity;BME280_pressure;Samples;Min_cycle;Max_cycle;Signal;HPM_P1;HPM_P2
2022/03/29 00:00:50;;;;;;;16.10;7.17;;;7.80;99.90;;;;;;1866271;77;21048;-77
2022/03/29 00:03:17;;;;;;;24.95;7.35;;;7.80;99.90;;;;;;1866177;77;21092;-77
2022/03/29 00:05:45;;;;;;;11.63;6.70;;;7.70;99.90;;;;;;1866236;77;21122;-76
2022/03/29 00:08:12;;;;;;;19.67;7.28;;;7.70;99.90;;;;;;1866455;77;21456;-76
2022/03/29 00:10:39;;;;;;;11.65;7.25;;;7.60;99.90;;;;;;1866195;77;21111;-76
2022/03/29 00:13:07;;;;;;;11.18;7.05;;;7.70;99.90;;;;;;1866256;77;21445;-76
2022/03/29 00:15:34;;;;;;;11.48;6.95;;;7.70;99.90;;;;;;1866164;77;21531;-77
2022/03/29 00:18:02;;;;;;;12.55;7.45;;;7.70;99.90;;;;;;1866198;77;21103;-75
2022/03/29 00:20:29;;;;;;;11.83;7.20;;;7.70;99.90;;;;;;1866072;77;21088;-75
2022/03/29 00:22:56;;;;;;;11.10;6.95;;;7.70;99.90;;;;;;1866068;77;21052;-76
2022/03/29 00:25:24;;;;;;;18.70;6.83;;;7.60;99.90;;;;;;1866056;77;21523;-77
2022/03/29 00:27:51;;;;;;;12.53;6.60;;;7.60;99.90;;;;;;1866213;77;21041;-77
2022/03/29 00:30:18;;;;;;;12.53;7.22;;;7.50;99.90;;;;;;1866073;77;21049;-76
2022/03/29 00:32:46;;;;;;;14.80;8.00;;;7.50;99.90;;;;;;1866036;77;21477;-76
2022/03/29 00:35:13;;;;;;;15.98;7.15;;;7.40;99.90;;;;;;1866105;77;21048;-77
2022/03/29 00:37:42;;;;;;;14.20;7.72;;;7.40;99.90;;;;;;1866172;77;21437;-76
2022/03/29 00:40:10;;;;;;;15.08;7.67;;;7.30;99.90;;;;;;1866107;77;21111;-77
2022/03/29 00:42:38;;;;;;;15.70;7.45;;;7.40;99.90;;;;;;1866102;77;21465;-75
2022/03/29 00:45:07;;;;;;;12.47;7.20;;;7.30;99.90;;;;;;1866058;77;21126;-76
2022/03/29 00:47:34;;;;;;;13.55;8.08;;;7.40;99.90;;;;;;1866015;77;21057;-75
2022/03/29 00:50:01;;;;;;;12.45;7.60;;;7.40;99.90;;;;;;1865986;77;21498;-76
2022/03/29 00:52:29;;;;;;;11.68;6.95;;;7.50;99.90;;;;;;1866179;77;21048;-76
2022/03/29 00:54:56;;;;;;;13.45;7.15;;;7.50;99.90;;;;;;1866049;77;21146;-76
2022/03/29 00:57:25;;;;;;;14.43;7.80;;;7.50;99.90;;;;;;1866215;77;21050;-75
2022/03/29 00:59:53;;;;;;;12.45;7.33;;;7.40;99.90;;;;;;1866163;77;21069;-76
2022/03/29 01:02:20;;;;;;;13.48;7.00;;;7.40;99.90;;;;;;1866045;77;21138;-76
2022/03/29 01:04:48;;;;;;;13.30;6.92;;;7.30;99.90;;;;;;1866144;77;21128;-75
2022/03/29 01:07:15;;;;;;;13.28;7.33;;;7.30;99.90;;;;;;1866026;77;21519;-76
2022/03/29 01:09:42;;;;;;;11.40;7.37;;;7.20;99.90;;;;;;1866102;77;21118;-76
2022/03/29 01:12:10;;;;;;;12.35;7.22;;;7.20;99.90;;;;;;1866091;77;21021;-76
2022/03/29 01:14:38;;;;;;;10.95;7.70;;;7.20;99.90;;;;;;1866098;77;21129;-75
2022/03/29 01:19:53;;;;;;;12.40;7.20;;;7.10;99.90;;;;;;1867480;76;21522;-76
2022/03/29 01:22:21;;;;;;;17.57;7.85;;;7.20;99.90;;;;;;1866209;77;21065;-76
2022/03/29 01:24:49;;;;;;;17.07;8.40;;;7.10;99.90;;;;;;1866128;77;21492;-75
2022/03/29 01:27:17;;;;;;;10.00;7.08;;;7.10;99.90;;;;;;1866204;77;21517;-76
2022/03/29 01:29:44;;;;;;;16.65;7.55;;;7.10;99.90;;;;;;1866113;77;21044;-75
2022/03/29 01:32:11;;;;;;;11.00;7.65;;;7.20;99.90;;;;;;1866000;77;21041;-75
2022/03/29 01:34:41;;;;;;;15.18;7.78;;;7.20;99.90;;;;;;1866673;77;21183;-75
2022/03/29 01:37:09;;;;;;;15.85;8.78;;;7.10;99.90;;;;;;1866243;77;21131;-76
2022/03/29 01:39:36;;;;;;;25.20;8.45;;;7.10;99.90;;;;;;1866017;77;21139;-76
2022/03/29 01:42:04;;;;;;;18.45;8.10;;;7.10;99.90;;;;;;1841952;77;21021;-75
2022/03/29 01:44:31;;;;;;;13.05;8.03;;;7.10;99.90;;;;;;1866135;77;21102;-76
2022/03/29 01:46:59;;;;;;;20.52;8.20;;;7.10;99.90;;;;;;1866077;77;21142;-75
2022/03/29 01:49:26;;;;;;;15.98;7.90;;;7.10;99.90;;;;;;1866139;77;21172;-75
2022/03/29 01:51:53;;;;;;;10.28;7.00;;;7.10;99.90;;;;;;1866002;77;21052;-76
2022/03/29 01:54:21;;;;;;;9.93;6.97;;;7.00;99.90;;;;;;1866211;77;21110;-76
2022/03/29 01:56:48;;;;;;;13.32;8.08;;;6.90;99.90;;;;;;1866172;77;21092;-76
2022/03/29 01:59:15;;;;;;;18.82;7.60;;;6.90;99.90;;;;;;1866113;77;21134;-76
2022/03/29 02:01:47;;;;;;;11.65;8.08;;;6.80;99.90;;;;;;1866067;77;21036;-76
2022/03/29 02:04:16;;;;;;;9.15;7.22;;;6.80;99.90;;;;;;1866117;77;21036;-76
2022/03/29 02:06:43;;;;;;;12.20;7.92;;;6.80;99.90;;;;;;1857473;77;21536;-75
2022/03/29 02:09:11;;;;;;;15.25;8.55;;;6.80;99.90;;;;;;1865562;77;21142;-75
2022/03/29 02:11:42;;;;;;;15.60;8.35;;;6.80;99.90;;;;;;1865437;77;21146;-76
2022/03/29 02:14:10;;;;;;;14.70;8.35;;;6.80;99.90;;;;;;1864409;77;21519;-76
2022/03/29 02:16:37;;;;;;;13.15;8.20;;;6.80;99.90;;;;;;1865621;77;21142;-77
2022/03/29 02:19:05;;;;;;;15.03;9.03;;;6.80;99.90;;;;;;1865768;76;21052;-77
2022/03/29 02:21:33;;;;;;;20.77;8.63;;;6.80;99.90;;;;;;1865721;77;21041;-77
2022/03/29 02:24:00;;;;;;;15.95;7.85;;;6.80;99.90;;;;;;1865881;77;21042;-76
2022/03/29 02:26:28;;;;;;;12.55;7.85;;;6.90;99.90;;;;;;1865690;77;21071;-77
2022/03/29 02:28:56;;;;;;;11.68;6.97;;;6.90;99.90;;;;;;1865677;77;21033;-76
2022/03/29 02:31:23;;;;;;;16.07;7.83;;;6.90;99.90;;;;;;1865602;77;21118;-76
2022/03/29 02:33:50;;;;;;;13.65;7.78;;;6.80;99.90;;;;;;1865748;77;21394;-76
2022/03/29 02:36:17;;;;;;;16.37;7.62;;;6.80;99.90;;;;;;1865647;77;21076;-76
2022/03/29 02:38:45;;;;;;;12.43;8.13;;;6.80;99.90;;;;;;1865716;77;21052;-76
2022/03/29 02:41:12;;;;;;;14.95;8.25;;;6.80;99.90;;;;;;1865682;77;21030;-76
2022/03/29 02:43:39;;;;;;;16.12;8.35;;;6.80;99.90;;;;;;1865586;77;21106;-76
2022/03/29 02:46:07;;;;;;;13.85;8.35;;;6.80;99.90;;;;;;1865555;77;21141;-76
2022/03/29 02:48:34;;;;;;;13.85;7.78;;;6.70;99.90;;;;;;1865709;77;21056;-76
2022/03/29 02:51:01;;;;;;;14.93;8.18;;;6.70;99.90;;;;;;1865915;76;21057;-77
2022/03/29 02:53:29;;;;;;;16.73;9.20;;;6.70;99.90;;;;;;1865726;76;21108;-77
2022/03/29 02:55:56;;;;;;;14.23;8.18;;;6.70;99.90;;;;;;1865724;76;21060;-77
2022/03/29 02:58:23;;;;;;;17.95;8.85;;;6.70;99.90;;;;;;1865635;77;21061;-76
2022/03/29 03:00:51;;;;;;;13.50;8.95;;;6.60;99.90;;;;;;1865818;76;21033;-77
2022/03/29 03:03:19;;;;;;;20.23;8.30;;;6.50;99.90;;;;;;1866273;76;21205;-76
2022/03/29 03:05:46;;;;;;;18.62;8.83;;;6.50;99.90;;;;;;1870635;76;21460;-75
2022/03/29 03:08:13;;;;;;;15.43;8.63;;;6.60;99.90;;;;;;1866132;77;21146;-76
2022/03/29 03:10:41;;;;;;;13.98;8.58;;;6.50;99.90;;;;;;1866213;77;21026;-76
2022/03/29 03:13:08;;;;;;;14.13;8.48;;;6.50;99.90;;;;;;1866174;77;21354;-76
2022/03/29 03:15:40;;;;;;;19.52;7.95;;;6.50;99.90;;;;;;1866251;77;21044;-79
2022/03/29 03:18:09;;;;;;;15.25;7.87;;;6.60;99.90;;;;;;1866269;77;21120;-76
2022/03/29 03:20:36;;;;;;;13.08;7.92;;;6.50;99.90;;;;;;1866077;77;21131;-76
2022/03/29 03:23:04;;;;;;;16.52;9.30;;;6.50;99.90;;;;;;1866218;77;21025;-76
2022/03/29 03:25:31;;;;;;;16.73;8.50;;;6.50;99.90;;;;;;1866248;77;21130;-77
2022/03/29 03:27:58;;;;;;;16.73;8.13;;;6.50;99.90;;;;;;1856807;76;21087;-78
2022/03/29 03:30:25;;;;;;;17.32;8.13;;;6.50;99.90;;;;;;1866214;77;21057;-78
2022/03/29 03:32:54;;;;;;;13.53;8.63;;;6.50;99.90;;;;;;1866172;77;21048;-76
2022/03/29 03:35:21;;;;;;;19.32;8.38;;;6.40;99.90;;;;;;1866213;77;21130;-77
2022/03/29 03:37:50;;;;;;;17.52;9.18;;;6.40;99.90;;;;;;1866130;77;21495;-78
2022/03/29 03:40:17;;;;;;;15.70;8.80;;;6.30;99.90;;;;;;1866156;77;21143;-77
2022/03/29 03:42:45;;;;;;;15.25;8.28;;;6.30;99.90;;;;;;1866222;77;21049;-77
2022/03/29 03:45:12;;;;;;;13.30;8.15;;;6.40;99.90;;;;;;1866164;77;21150;-77
2022/03/29 03:47:39;;;;;;;14.15;8.55;;;6.50;99.90;;;;;;1866179;77;21109;-78
2022/03/29 03:50:09;;;;;;;16.73;8.38;;;6.60;99.90;;;;;;1866132;77;21110;-78
2022/03/29 03:52:36;;;;;;;19.53;8.33;;;6.50;99.90;;;;;;1866530;77;21060;-78
2022/03/29 03:55:04;;;;;;;21.82;8.33;;;6.50;99.90;;;;;;1866140;77;21134;-77
2022/03/29 03:57:32;;;;;;;16.70;9.05;;;6.40;99.90;;;;;;1866121;77;21068;-76
2022/03/29 04:00:00;;;;;;;12.88;8.50;;;6.40;99.90;;;;;;1866299;77;21480;-78
2022/03/29 04:02:28;;;;;;;17.55;9.30;;;6.40;99.90;;;;;;1867393;76;21088;-76
2022/03/29 04:04:55;;;;;;;13.40;8.73;;;6.40;99.90;;;;;;1866303;77;21154;-78
2022/03/29 04:07:23;;;;;;;14.00;8.33;;;6.30;99.90;;;;;;1866299;76;21084;-77
2022/03/29 04:09:50;;;;;;;16.55;9.28;;;6.30;99.90;;;;;;1866360;77;21243;-77
2022/03/29 04:12:17;;;;;;;15.65;9.50;;;6.20;99.90;;;;;;1866216;77;21469;-77
2022/03/29 04:14:45;;;;;;;15.38;8.65;;;6.10;99.90;;;;;;1866401;77;21029;-77
2022/03/29 04:17:13;;;;;;;17.50;8.95;;;6.10;99.90;;;;;;1866350;77;21495;-77
2022/03/29 04:19:40;;;;;;;15.78;8.93;;;6.10;99.90;;;;;;1860384;77;21061;-77
2022/03/29 04:22:08;;;;;;;14.80;8.58;;;6.10;99.90;;;;;;1865958;76;21507;-78
2022/03/29 04:24:35;;;;;;;12.90;8.20;;;5.90;99.90;;;;;;1865634;77;21114;-78
2022/03/29 04:27:02;;;;;;;14.63;8.05;;;5.90;99.90;;;;;;1866537;76;21052;-78
2022/03/29 04:29:30;;;;;;;17.87;9.38;;;6.00;99.90;;;;;;1865899;76;21581;-78
2022/03/29 04:31:57;;;;;;;20.77;8.80;;;5.90;99.90;;;;;;1866183;76;21048;-79
2022/03/29 04:34:25;;;;;;;21.93;9.63;;;5.80;99.90;;;;;;1865818;76;21040;-75
2022/03/29 04:36:52;;;;;;;22.62;10.40;;;5.80;99.90;;;;;;1865565;76;21080;-75
2022/03/29 04:39:19;;;;;;;14.60;9.05;;;5.80;99.90;;;;;;1866536;77;21487;-79
2022/03/29 04:41:47;;;;;;;19.32;8.93;;;5.80;99.90;;;;;;1866443;77;21053;-78
2022/03/29 04:44:14;;;;;;;17.48;9.25;;;5.80;99.90;;;;;;1866361;77;21205;-79
2022/03/29 04:46:41;;;;;;;14.87;8.65;;;5.80;99.90;;;;;;1866338;77;21030;-80
2022/03/29 04:49:09;;;;;;;13.03;8.50;;;5.80;99.90;;;;;;1866396;77;21052;-79
2022/03/29 04:51:36;;;;;;;18.57;9.43;;;5.80;99.90;;;;;;1866270;77;21061;-79
2022/03/29 04:54:06;;;;;;;15.58;8.90;;;5.70;99.90;;;;;;1866203;77;21374;-79
2022/03/29 04:56:33;;;;;;;16.30;8.45;;;5.80;99.90;;;;;;1866150;77;21073;-80
2022/03/29 04:59:00;;;;;;;17.57;8.73;;;5.80;99.90;;;;;;1866304;77;21092;-80
2022/03/29 05:01:27;;;;;;;15.48;8.58;;;5.80;99.90;;;;;;1866388;77;21044;-79
2022/03/29 05:03:55;;;;;;;15.88;8.68;;;5.80;99.90;;;;;;1866339;77;21172;-80
2022/03/29 05:06:22;;;;;;;12.90;7.87;;;5.80;99.90;;;;;;1866434;77;21115;-80
2022/03/29 05:08:49;;;;;;;21.23;8.55;;;5.80;99.90;;;;;;1866274;77;21192;-79
2022/03/29 05:11:17;;;;;;;22.30;8.03;;;5.70;99.90;;;;;;1842407;77;21444;-80
2022/03/29 05:13:47;;;;;;;18.10;10.10;;;5.70;99.90;;;;;;1866366;77;21154;-76
2022/03/29 05:16:15;;;;;;;13.58;9.10;;;5.70;99.90;;;;;;1866410;77;21080;-77
2022/03/29 05:18:43;;;;;;;11.38;8.28;;;5.70;99.90;;;;;;1842480;76;21107;-78
2022/03/29 05:21:10;;;;;;;19.37;8.55;;;5.70;99.90;;;;;;1866382;77;21087;-78
2022/03/29 05:23:37;;;;;;;15.38;8.65;;;5.70;99.90;;;;;;1866588;77;21065;-78
2022/03/29 05:26:05;;;;;;;17.17;9.23;;;5.70;99.90;;;;;;1867086;77;21053;-77
2022/03/29 05:28:32;;;;;;;13.48;8.83;;;5.70;99.90;;;;;;1867029;77;21485;-77
2022/03/29 05:30:59;;;;;;;14.30;8.98;;;5.80;99.90;;;;;;1867145;77;21076;-77
2022/03/29 05:33:27;;;;;;;15.50;8.68;;;5.90;99.90;;;;;;1867007;77;21507;-78
2022/03/29 05:35:54;;;;;;;19.50;8.73;;;5.90;99.90;;;;;;1843067;77;21570;-79
2022/03/29 05:38:21;;;;;;;22.98;9.10;;;5.90;99.90;;;;;;1867113;77;21119;-77
2022/03/29 05:40:49;;;;;;;16.52;9.98;;;6.00;99.90;;;;;;1866950;77;21045;-78
2022/03/29 05:43:18;;;;;;;16.75;8.70;;;6.10;99.90;;;;;;1866977;77;21146;-79
2022/03/29 05:48:51;;;;;;;17.42;9.68;;;6.20;99.90;;;;;;1866968;77;21401;-77
2022/03/29 05:51:05;;;;;;;15.72;8.90;;;6.40;99.90;;;;;;1865000;76;21085;-79
2022/03/29 05:53:35;;;;;;;13.00;8.53;;;6.30;99.90;;;;;;1861071;77;21131;-78
2022/03/29 05:56:02;;;;;;;17.48;9.03;;;6.40;99.90;;;;;;1866249;77;21037;-78
2022/03/29 05:58:31;;;;;;;33.10;9.60;;;6.40;99.90;;;;;;1866338;77;21174;-78
2022/03/29 06:00:58;;;;;;;13.72;8.88;;;6.40;99.90;;;;;;1866429;77;21053;-79
2022/03/29 06:03:26;;;;;;;16.62;8.80;;;6.60;99.90;;;;;;1872853;76;21092;-78
2022/03/29 06:05:55;;;;;;;21.95;9.88;;;6.70;99.90;;;;;;1866410;77;21052;-77
2022/03/29 06:08:23;;;;;;;;;;;6.70;99.90;;;;;;1869171;77;21105;-79
2022/03/29 06:10:50;;;;;;;18.52;9.43;;;6.90;99.90;;;;;;1866728;77;20156;-78
2022/03/29 06:13:18;;;;;;;18.77;8.70;;;6.90;99.90;;;;;;1866456;77;21122;-78
2022/03/29 06:15:45;;;;;;;29.50;9.50;;;7.00;99.90;;;;;;1866577;77;21138;-78
2022/03/29 06:18:12;;;;;;;16.62;9.08;;;7.10;99.90;;;;;;1866543;77;21123;-77
2022/03/29 06:20:40;;;;;;;19.57;9.45;;;7.10;99.90;;;;;;1866746;77;21084;-79
2022/03/29 06:23:07;;;;;;;16.90;10.03;;;7.20;99.90;;;;;;1866712;77;21110;-78
2022/03/29 06:25:36;;;;;;;19.60;9.75;;;7.20;99.90;;;;;;1866526;77;21113;-77
2022/03/29 06:28:04;;;;;;;16.52;9.20;;;7.40;99.90;;;;;;1866450;77;21085;-77
2022/03/29 06:30:31;;;;;;;22.35;10.65;;;7.60;99.90;;;;;;1866459;77;21177;-76
2022/03/29 06:32:59;;;;;;;28.67;10.93;;;7.70;99.90;;;;;;1866397;77;21091;-78
2022/03/29 06:35:28;;;;;;;20.90;9.55;;;7.80;99.90;;;;;;1866335;77;21080;-78
2022/03/29 06:37:58;;;;;;;26.00;10.75;;;7.80;99.90;;;;;;1866399;77;21578;-83
2022/03/29 06:40:29;;;;;;;28.27;10.35;;;7.80;99.90;;;;;;1866252;77;21138;-76
2022/03/29 06:43:01;;;;;;;20.20;10.23;;;7.80;99.90;;;;;;1866651;77;21049;-78
2022/03/29 06:45:26;;;;;;;18.62;10.00;;;7.90;99.90;;;;;;1865930;77;21072;-78
2022/03/29 06:47:54;;;;;;;26.27;9.75;;;7.80;99.90;;;;;;1866303;77;21068;-76
2022/03/29 06:50:21;;;;;;;17.50;9.93;;;7.90;99.90;;;;;;1866165;77;21049;-78
2022/03/29 06:52:48;;;;;;;22.85;10.13;;;8.00;99.90;;;;;;1866144;77;21040;-78
2022/03/29 06:55:18;;;;;;;22.13;10.23;;;8.10;99.90;;;;;;1866387;77;21052;-79
2022/03/29 06:57:49;;;;;;;20.62;9.88;;;8.10;99.90;;;;;;1866324;77;21025;-79
2022/03/29 07:00:17;;;;;;;30.23;10.63;;;8.10;99.90;;;;;;1866453;77;21037;-78
2022/03/29 07:02:46;;;;;;;17.37;10.75;;;8.20;99.90;;;;;;1866460;77;21433;-79
2022/03/29 07:05:14;;;;;;;21.20;11.37;;;8.30;99.90;;;;;;1870827;76;21076;-79
2022/03/29 07:07:42;;;;;;;21.17;10.43;;;8.50;99.90;;;;;;1866379;77;21130;-79
2022/03/29 07:12:59;;;;;;;19.32;10.25;;;8.40;99.90;;;;;;1846080;77;21542;-78
2022/03/29 07:15:26;;;;;;;;;;;8.60;99.90;;;;;;1869314;77;21104;-78
2022/03/29 07:17:57;;;;;;;19.30;10.90;;;8.70;99.90;;;;;;1866581;77;20317;-79
2022/03/29 07:20:24;;;;;;;17.98;10.43;;;8.70;99.90;;;;;;1866478;77;21485;-78
2022/03/29 07:22:52;;;;;;;15.80;10.00;;;8.80;99.90;;;;;;1866400;77;21126;-78
2022/03/29 07:25:22;;;;;;;21.25;10.58;;;9.00;99.90;;;;;;1866399;77;21382;-78
2022/03/29 07:27:53;;;;;;;19.25;10.03;;;9.20;99.90;;;;;;1866592;77;21561;-77
2022/03/29 07:30:22;;;;;;;15.40;9.85;;;9.40;99.90;;;;;;1866416;77;21080;-77
2022/03/29 07:32:52;;;;;;;26.27;10.45;;;9.40;99.90;;;;;;1866501;77;21507;-77
2022/03/29 07:35:20;;;;;;;17.92;10.88;;;9.40;99.90;;;;;;1866608;77;21580;-77
2022/03/29 07:37:48;;;;;;;19.00;11.00;;;9.60;99.90;;;;;;1866584;77;21134;-77
2022/03/29 07:40:17;;;;;;;23.40;11.03;;;9.50;99.90;;;;;;1866793;77;21056;-77
2022/03/29 07:42:45;;;;;;;24.40;10.75;;;9.50;99.90;;;;;;1866695;77;21511;-77
2022/03/29 07:45:12;;;;;;;19.32;10.20;;;9.60;99.90;;;;;;1866647;77;21060;-77
2022/03/29 07:47:41;;;;;;;22.50;10.82;;;9.70;99.90;;;;;;1868970;76;21072;-77
2022/03/29 07:50:10;;;;;;;29.05;11.25;;;9.80;99.90;;;;;;1866268;77;21208;-77
2022/03/29 07:52:39;;;;;;;26.37;10.72;;;9.80;99.90;;;;;;1866280;77;21142;-76
2022/03/29 07:55:08;;;;;;;22.37;10.65;;;9.90;99.90;;;;;;1865361;77;21104;-79
2022/03/29 07:57:35;;;;;;;30.10;11.33;;;9.80;99.90;;;;;;1866357;77;21137;-82
2022/03/29 08:00:31;;;;;;;29.27;10.88;;;10.00;99.90;;;;;;1866372;77;21044;-77
2022/03/29 08:02:33;;;;;;;22.80;10.63;;;10.10;99.90;;;;;;1862707;77;21166;-77
2022/03/29 08:05:00;;;;;;;23.45;10.90;;;10.30;99.90;;;;;;1867345;76;21162;-77
2022/03/29 08:07:27;;;;;;;24.37;10.98;;;10.30;99.90;;;;;;1866259;77;21126;-79
2022/03/29 08:09:55;;;;;;;24.25;10.95;;;10.50;99.90;;;;;;1866397;77;21059;-77
2022/03/29 08:12:23;;;;;;;18.42;11.08;;;10.40;99.90;;;;;;1866221;77;21052;-76
2022/03/29 08:14:50;;;;;;;16.62;10.40;;;10.60;99.90;;;;;;1866231;77;21100;-75
2022/03/29 08:17:18;;;;;;;22.25;10.40;;;10.90;99.90;;;;;;1866254;77;21119;-76
2022/03/29 08:19:47;;;;;;;20.62;10.32;;;11.00;99.90;;;;;;1866362;77;21099;-75
2022/03/29 08:22:14;;;;;;;23.42;10.53;;;11.30;99.90;;;;;;1866184;77;21044;-78
2022/03/29 08:24:41;;;;;;;21.48;10.98;;;11.30;99.90;;;;;;1866403;77;21081;-78
2022/03/29 08:27:09;;;;;;;79.72;13.43;;;11.40;99.90;;;;;;1866393;77;21052;-78
2022/03/29 08:29:37;;;;;;;20.72;10.98;;;11.60;99.90;;;;;;1866360;77;21065;-79
2022/03/29 08:32:05;;;;;;;25.35;10.00;;;11.80;99.90;;;;;;1866393;77;21057;-76
2022/03/29 08:34:33;;;;;;;26.15;10.60;;;11.90;99.90;;;;;;1866380;77;21450;-78
2022/03/29 08:37:00;;;;;;;22.67;10.68;;;12.40;99.90;;;;;;1866586;77;21084;-78
2022/03/29 08:39:27;;;;;;;23.00;10.82;;;12.60;99.90;;;;;;1866501;77;21530;-77
2022/03/29 08:42:01;;;;;;;20.68;9.78;;;12.70;99.90;;;;;;1866267;77;21029;-74
2022/03/29 08:44:28;;;;;;;19.55;10.65;;;12.70;99.90;;;;;;1865802;77;21018;-74
2022/03/29 08:46:55;;;;;;;25.20;10.08;;;12.60;99.90;;;;;;1866176;77;21114;-81
2022/03/29 08:49:23;;;;;;;15.63;10.28;;;13.00;99.90;;;;;;1867493;76;21131;-76
2022/03/29 08:51:50;;;;;;;22.42;9.90;;;13.00;99.90;;;;;;1866129;77;21149;-78
2022/03/29 08:54:19;;;;;;;17.87;10.15;;;13.00;99.90;;;;;;1866270;77;21131;-78
2022/03/29 08:56:47;;;;;;;17.65;9.08;;;12.80;99.90;;;;;;1866118;77;21508;-78
2022/03/29 08:59:15;;;;;;;23.22;10.82;;;13.10;99.90;;;;;;1866210;77;21022;-76
2022/03/29 09:01:42;;;;;;;19.05;10.03;;;13.10;99.90;;;;;;1866261;77;21208;-82
2022/03/29 09:04:12;;;;;;;129.82;14.13;;;12.80;99.90;;;;;;1866262;77;21138;-83
2022/03/29 09:06:55;;;;;;;22.73;9.78;;;13.00;99.90;;;;;;1866536;77;21176;-78
2022/03/29 09:09:33;;;;;;;21.35;10.08;;;13.10;99.90;;;;;;1866128;77;21146;-74
2022/03/29 09:12:13;;;;;;;24.18;10.32;;;13.40;99.90;;;;;;1866261;77;21075;-74
2022/03/29 09:14:57;;;;;;;17.82;10.05;;;13.60;99.90;;;;;;1866298;77;21077;-74
2022/03/29 09:17:38;;;;;;;17.85;9.78;;;14.10;99.90;;;;;;1866182;77;21110;-74
2022/03/29 09:20:08;;;;;;;20.92;10.00;;;14.40;99.90;;;;;;1866428;77;21138;-78
2022/03/29 09:22:37;;;;;;;22.65;10.55;;;14.40;99.90;;;;;;1865949;77;21053;-73
2022/03/29 09:25:05;;;;;;;20.30;10.13;;;14.10;99.90;;;;;;1866113;77;21122;-74
2022/03/29 09:27:38;;;;;;;26.07;10.03;;;13.70;99.90;;;;;;1866080;77;21103;-75
2022/03/29 09:30:07;;;;;;;25.15;10.55;;;13.90;99.90;;;;;;1837195;77;21150;-76
2022/03/29 09:32:35;;;;;;;32.28;11.05;;;14.10;99.90;;;;;;1866102;77;21131;-77
2022/03/29 09:35:11;;;;;;;24.63;10.00;;;14.00;99.90;;;;;;1842198;77;21096;-75
2022/03/29 09:37:35;;;;;;;22.02;11.22;;;14.10;99.90;;;;;;1865351;77;21523;-75
2022/03/29 09:40:02;;;;;;;21.23;11.45;;;13.90;99.90;;;;;;1866141;77;21103;-76
2022/03/29 09:42:30;;;;;;;17.25;10.50;;;14.00;99.90;;;;;;1866202;77;21144;-76
2022/03/29 09:44:59;;;;;;;19.73;10.30;;;14.30;99.90;;;;;;1866259;77;21126;-76
2022/03/29 09:47:29;;;;;;;33.67;10.63;;;14.60;99.90;;;;;;1866104;77;21142;-74
2022/03/29 09:50:06;;;;;;;20.40;10.98;;;14.80;99.90;;;;;;1866241;77;21201;-75
2022/03/29 09:52:34;;;;;;;19.90;10.40;;;15.00;99.90;;;;;;1864853;77;21049;-75
2022/03/29 09:55:23;;;;;;;17.52;10.20;;;15.70;99.90;;;;;;1866217;77;21092;-75
2022/03/29 09:57:53;;;;;;;23.77;11.65;;;15.90;99.90;;;;;;1865532;77;21076;-78
2022/03/29 10:00:26;;;;;;;23.10;10.75;;;16.40;99.90;;;;;;1864768;77;21158;-74
2022/03/29 10:02:54;;;;;;;15.72;9.98;;;16.90;99.90;;;;;;1859506;76;21114;-76
2022/03/29 10:05:21;;;;;;;17.87;10.20;;;17.00;99.90;;;;;;1866097;77;21100;-76
2022/03/29 10:10:47;;;;;;;19.05;10.32;;;16.70;99.60;;;;;;1866229;77;21093;-75
2022/03/29 10:13:15;;;;;;;22.77;11.05;;;17.00;98.80;;;;;;1866061;77;21060;-76
2022/03/29 10:15:42;;;;;;;24.15;10.55;;;17.20;99.90;;;;;;1867053;77;21057;-76
2022/03/29 10:18:10;;;;;;;22.40;10.70;;;17.70;96.70;;;;;;1866439;77;21099;-77
2022/03/29 10:20:37;;;;;;;22.82;10.63;;;17.40;96.10;;;;;;1866548;77;21119;-76
2022/03/29 10:23:06;;;;;;;26.55;11.25;;;17.10;96.60;;;;;;1866465;77;21519;-75
2022/03/29 10:25:34;;;;;;;16.30;10.40;;;17.40;96.80;;;;;;1843078;77;21131;-75
2022/03/29 10:28:01;;;;;;;26.95;10.23;;;17.50;95.60;;;;;;1866449;77;21573;-76
2022/03/29 10:30:34;;;;;;;20.70;11.35;;;17.10;95.80;;;;;;1866535;77;21115;-77
2022/03/29 10:33:23;;;;;;;20.82;10.60;;;17.40;96.30;;;;;;1866537;77;21103;-79
2022/03/29 10:36:06;;;;;;;17.20;10.55;;;17.60;94.30;;;;;;1866345;76;21459;-78
2022/03/29 10:38:53;;;;;;;18.75;11.15;;;17.50;93.60;;;;;;1866585;77;21045;-76
2022/03/29 10:41:30;;;;;;;17.35;11.25;;;17.40;94.30;;;;;;1866591;76;21229;-77
2022/03/29 10:44:05;;;;;;;23.22;11.48;;;17.60;93.50;;;;;;1866753;77;21075;-78
2022/03/29 10:46:40;;;;;;;19.85;10.53;;;17.40;93.20;;;;;;1866579;77;21061;-78
2022/03/29 10:49:32;;;;;;;20.75;10.58;;;17.60;93.30;;;;;;1866552;77;21118;-76
2022/03/29 10:51:59;;;;;;;21.10;11.03;;;18.00;92.50;;;;;;1866222;77;21520;-78
2022/03/29 10:54:30;;;;;;;21.55;11.10;;;17.80;92.90;;;;;;1866439;77;21017;-77
2022/03/29 10:57:00;;;;;;;25.37;10.32;;;18.10;92.60;;;;;;1866692;77;21048;-75
2022/03/29 10:59:29;;;;;;;24.10;10.95;;;18.40;91.30;;;;;;1860420;77;21476;-79
2022/03/29 11:02:13;;;;;;;18.12;10.38;;;18.30;90.90;;;;;;1866238;77;21122;-78
2022/03/29 11:05:06;;;;;;;21.12;10.40;;;18.10;90.70;;;;;;1866261;77;21044;-77
2022/03/29 11:07:55;;;;;;;21.65;9.68;;;17.80;90.90;;;;;;1866346;77;21072;-78
2022/03/29 11:10:26;;;;;;;22.07;10.15;;;18.00;90.90;;;;;;1866411;77;21048;-74
2022/03/29 11:12:54;;;;;;;17.27;9.65;;;18.10;91.20;;;;;;1863033;77;21041;-74
2022/03/29 11:15:35;;;;;;;21.50;9.88;;;18.40;90.90;;;;;;1866329;77;21080;-76
2022/03/29 11:18:01;;;;;;;17.57;9.38;;;18.70;87.40;;;;;;1866414;77;21158;-75
2022/03/29 11:20:35;;;;;;;18.10;9.28;;;18.90;85.90;;;;;;1868490;76;21145;-75
2022/03/29 11:23:12;;;;;;;24.05;9.95;;;19.10;84.10;;;;;;1866302;77;21041;-74
2022/03/29 11:25:46;;;;;;;16.48;10.32;;;19.30;85.50;;;;;;1866310;77;21535;-74
2022/03/29 11:28:17;;;;;;;23.98;9.85;;;19.50;85.50;;;;;;1866278;77;21032;-74
2022/03/29 11:30:44;;;;;;;21.12;10.43;;;19.90;84.00;;;;;;1866301;77;21531;-73
2022/03/29 11:33:12;;;;;;;21.62;10.18;;;20.00;82.90;;;;;;1866196;77;21092;-73
2022/03/29 11:35:40;;;;;;;22.05;9.20;;;20.20;80.90;;;;;;1866364;77;21142;-74
2022/03/29 11:38:12;;;;;;;18.10;10.28;;;20.20;81.60;;;;;;1866210;77;21057;-74
2022/03/29 11:40:40;;;;;;;21.55;10.30;;;20.50;79.30;;;;;;1866251;77;21132;-74
2022/03/29 11:43:15;;;;;;;16.97;10.25;;;20.80;76.90;;;;;;1866307;77;21056;-73
2022/03/29 11:45:40;;;;;;;22.40;10.00;;;19.90;77.80;;;;;;1865405;77;21076;-73
2022/03/29 11:48:17;;;;;;;19.87;10.30;;;20.10;76.50;;;;;;1866475;77;21057;-74
2022/03/29 11:50:51;;;;;;;19.98;10.20;;;20.30;76.40;;;;;;1866052;76;21146;-74
2022/03/29 11:53:33;;;;;;;20.88;11.30;;;20.40;74.90;;;;;;1866107;76;21057;-74
2022/03/29 11:56:05;;;;;;;23.30;9.80;;;20.60;74.10;;;;;;1866524;77;21139;-75
2022/03/29 11:58:35;;;;;;;17.95;9.83;;;21.10;72.70;;;;;;1866503;77;21040;-73
2022/03/29 12:01:09;;;;;;;16.15;10.93;;;20.90;73.50;;;;;;1866074;77;21092;-75
2022/03/29 12:03:41;;;;;;;20.48;10.15;;;20.90;73.90;;;;;;1866313;77;21041;-74
2022/03/29 12:06:21;;;;;;;21.15;11.05;;;21.00;72.40;;;;;;1866208;77;21118;-74
2022/03/29 12:08:54;;;;;;;18.35;10.48;;;20.50;72.20;;;;;;1824861;77;21092;-74
2022/03/29 12:11:24;;;;;;;21.87;10.80;;;19.80;73.90;;;;;;1866618;77;21014;-73
2022/03/29 12:14:06;;;;;;;19.60;11.33;;;19.10;75.30;;;;;;1866689;77;21122;-75
2022/03/29 12:16:41;;;;;;;20.02;10.23;;;19.30;76.20;;;;;;1866620;77;21405;-75
2022/03/29 12:19:10;;;;;;;20.27;10.72;;;19.30;75.10;;;;;;1866610;77;21072;-75
2022/03/29 12:21:38;;;;;;;16.17;10.10;;;19.70;75.30;;;;;;1866577;77;21069;-75
2022/03/29 12:24:08;;;;;;;17.02;10.35;;;19.90;72.30;;;;;;1866591;77;21056;-75
2022/03/29 12:26:38;;;;;;;19.80;9.45;;;20.40;71.10;;;;;;1866747;77;21131;-75
2022/03/29 12:29:08;;;;;;;18.82;10.18;;;20.60;70.70;;;;;;1866462;77;21163;-74
2022/03/29 12:31:36;;;;;;;22.10;10.05;;;20.30;70.10;;;;;;1866583;77;21029;-75
2022/03/29 12:34:03;;;;;;;20.27;9.65;;;20.70;70.00;;;;;;1866489;77;21060;-75
2022/03/29 12:36:31;;;;;;;21.97;9.35;;;20.90;71.10;;;;;;1866973;77;21052;-77
2022/03/29 12:39:03;;;;;;;21.52;10.38;;;21.40;69.70;;;;;;1866213;77;21457;-76
2022/03/29 12:41:41;;;;;;;17.45;8.73;;;21.30;68.10;;;;;;1866427;77;21127;-75
2022/03/29 12:44:10;;;;;;;18.42;9.75;;;21.10;67.40;;;;;;1866387;76;21153;-76
2022/03/29 12:46:39;;;;;;;17.92;9.83;;;21.30;69.30;;;;;;1867684;77;21084;-74
2022/03/29 12:49:06;;;;;;;17.23;9.20;;;21.40;66.30;;;;;;1866577;77;21106;-75
2022/03/29 12:51:35;;;;;;;19.77;9.20;;;20.60;66.10;;;;;;1866274;77;21476;-72
2022/03/29 12:54:05;;;;;;;25.20;8.73;;;21.10;66.20;;;;;;1866545;77;21126;-72
2022/03/29 12:56:37;;;;;;;22.90;9.53;;;20.90;66.00;;;;;;1866788;77;21107;-73
2022/03/29 12:59:27;;;;;;;17.15;9.28;;;20.40;67.20;;;;;;1866565;77;21125;-71
2022/03/29 13:02:00;;;;;;;14.03;8.00;;;20.70;65.90;;;;;;1866709;77;21102;-73